createdAt,value
2023-04-25T00:02:13.742Z,43.48
2023-04-25T00:04:41.393Z,44.79
2023-04-25T00:07:08.639Z,43.97
2023-04-25T00:09:35.468Z,45.05
2023-04-25T00:12:02.621Z,44.91
2023-04-25T00:14:30.406Z,44.01
2023-04-25T00:16:57.522Z,46.28
2023-04-25T00:19:24.227Z,44.59
2023-04-25T00:21:51.106Z,45.59
2023-04-25T00:24:18.136Z,47.03
2023-04-25T00:26:45.006Z,49.56
2023-04-25T00:29:12.214Z,46.97
2023-04-25T00:31:39.041Z,43.84
2023-04-25T00:34:07.650Z,43.03
2023-04-25T00:36:36.054Z,42.65
2023-04-25T00:39:03.849Z,42.14
2023-04-25T00:41:31.869Z,42.17
2023-04-25T00:44:00.386Z,42.20
2023-04-25T00:46:27.401Z,43.12
2023-04-25T00:48:54.135Z,41.90
2023-04-25T00:51:22.871Z,42.20
2023-04-25T00:53:51.553Z,42.23
2023-04-25T00:56:19.445Z,41.65
2023-04-25T00:58:46.650Z,43.22
2023-04-25T01:01:14.317Z,44.18
2023-04-25T01:03:42.499Z,44.84
2023-04-25T01:06:10.945Z,42.78
2023-04-25T01:08:40.358Z,46.49
2023-04-25T01:11:07.749Z,47.13
2023-04-25T01:13:35.735Z,46.70
2023-04-25T01:16:03.754Z,44.00
2023-04-25T01:18:30.659Z,44.47
2023-04-25T01:21:05.767Z,44.62
2023-04-25T01:23:34.712Z,47.20
2023-04-25T01:26:02.274Z,45.86
2023-04-25T01:28:30.532Z,46.20
2023-04-25T01:30:58.299Z,46.33
2023-04-25T01:33:25.752Z,47.45
2023-04-25T01:35:52.854Z,49.41
2023-04-25T01:38:20.976Z,48.17
2023-04-25T01:40:50.874Z,48.46
2023-04-25T01:43:19.826Z,46.85
2023-04-25T01:45:46.996Z,48.33
2023-04-25T01:48:15.214Z,48.84
2023-04-25T01:50:44.293Z,47.78
2023-04-25T01:53:14.422Z,46.68
2023-04-25T01:55:44.212Z,45.97
2023-04-25T01:58:14.819Z,46.12
2023-04-25T02:01:19.952Z,46.31
2023-04-25T02:03:59.680Z,48.41
2023-04-25T02:06:33.330Z,47.50
2023-04-25T02:09:00.130Z,47.11
2023-04-25T02:11:26.953Z,46.94
2023-04-25T02:14:13.976Z,45.61
2023-04-25T02:16:47.449Z,46.63
2023-04-25T02:19:14.821Z,45.89
2023-04-25T02:21:41.611Z,45.42
2023-04-25T02:24:08.988Z,45.76
2023-04-25T02:26:36.173Z,46.29
2023-04-25T02:29:03.101Z,45.03
2023-04-25T02:31:30.086Z,45.03
2023-04-25T02:33:58.700Z,46.82
2023-04-25T02:36:25.519Z,47.15
2023-04-25T02:38:53.015Z,44.28
2023-04-25T02:41:21.884Z,46.91
2023-04-25T02:43:49.072Z,45.08
2023-04-25T02:46:25.483Z,44.87
2023-04-25T02:49:00.387Z,45.05
2023-04-25T02:51:27.352Z,45.88
2023-04-25T02:53:54.359Z,46.08
2023-04-25T02:56:21.518Z,44.37
2023-04-25T02:58:48.944Z,45.05
2023-04-25T03:01:16.029Z,48.34
2023-04-25T03:03:42.975Z,46.27
2023-04-25T03:06:09.726Z,46.68
2023-04-25T03:08:37.381Z,46.24
2023-04-25T03:11:04.779Z,44.61
2023-04-25T03:13:31.545Z,45.88
2023-04-25T03:15:59.490Z,44.63
2023-04-25T03:18:26.622Z,43.97
2023-04-25T03:20:55.381Z,44.64
2023-04-25T03:23:22.444Z,45.26
2023-04-25T03:25:49.550Z,43.90
2023-04-25T03:28:16.398Z,42.91
2023-04-25T03:30:43.226Z,45.69
2023-04-25T03:33:10.558Z,45.01
2023-04-25T03:35:37.411Z,43.51
2023-04-25T03:38:04.171Z,47.00
2023-04-25T03:40:36.113Z,47.88
2023-04-25T03:43:29.484Z,47.26
2023-04-25T03:46:02.501Z,48.43
2023-04-25T03:48:29.647Z,47.39
2023-04-25T03:50:56.412Z,47.03
2023-04-25T03:53:23.269Z,47.37
2023-04-25T03:56:19.268Z,47.96
2023-04-25T03:58:47.569Z,51.65
2023-04-25T04:01:16.575Z,51.41
2023-04-25T04:03:43.696Z,51.42
2023-04-25T04:06:11.801Z,51.77
2023-04-25T04:08:45.108Z,50.67
2023-04-25T04:11:12.283Z,49.97
2023-04-25T04:13:39.249Z,50.16
2023-04-25T04:16:07.496Z,52.27
2023-04-25T04:18:34.501Z,50.60
2023-04-25T04:21:02.240Z,50.10
2023-04-25T04:23:32.213Z,50.85
2023-04-25T04:26:00.216Z,48.22
2023-04-25T04:28:55.321Z,45.26
2023-04-25T04:31:53.781Z,46.70
2023-04-25T04:34:20.911Z,44.62
2023-04-25T04:36:49.147Z,44.50
2023-04-25T04:39:16.057Z,45.84
2023-04-25T04:41:54.507Z,45.16
2023-04-25T04:44:40.072Z,47.57
2023-04-25T04:47:26.893Z,45.35
2023-04-25T04:50:13.008Z,48.74
2023-04-25T04:53:01.863Z,47.99
2023-04-25T04:55:45.795Z,53.77
2023-04-25T04:58:33.007Z,53.06
2023-04-25T05:01:23.956Z,52.78
2023-04-25T05:04:08.452Z,49.04
2023-04-25T05:06:54.506Z,49.35
2023-04-25T05:09:39.668Z,48.69
2023-04-25T05:12:06.967Z,47.52
2023-04-25T05:14:47.077Z,50.21
2023-04-25T05:17:33.740Z,50.62
2023-04-25T05:20:01.189Z,49.20
2023-04-25T05:22:52.484Z,47.17
2023-04-25T05:25:42.158Z,47.83
2023-04-25T05:28:34.988Z,47.13
2023-04-25T05:31:24.705Z,48.19
2023-04-25T05:34:02.861Z,47.08
2023-04-25T05:36:41.141Z,44.80
2023-04-25T05:39:09.853Z,45.98
2023-04-25T05:42:03.079Z,46.83
2023-04-25T05:45:03.122Z,49.31
2023-04-25T05:47:52.490Z,50.79
2023-04-25T05:50:28.856Z,49.77
2023-04-25T05:53:02.011Z,48.74
2023-04-25T05:55:31.206Z,50.53
2023-04-25T05:58:00.008Z,48.24
2023-04-25T06:00:27.564Z,48.39
2023-04-25T06:02:55.191Z,48.07
2023-04-25T06:05:22.507Z,45.18
2023-04-25T06:07:49.525Z,44.87
2023-04-25T06:10:16.808Z,48.04
2023-04-25T06:12:43.726Z,43.89
2023-04-25T06:15:24.348Z,44.31
2023-04-25T06:17:54.929Z,43.41
2023-04-25T06:20:24.292Z,43.62
2023-04-25T06:22:52.957Z,41.79
2023-04-25T06:25:22.909Z,44.48
2023-04-25T06:27:49.938Z,46.14
2023-04-25T06:30:19.438Z,44.09
2023-04-25T06:32:46.536Z,47.01
2023-04-25T06:35:14.205Z,44.51
2023-04-25T06:37:41.595Z,44.56
2023-04-25T06:40:09.415Z,44.05
2023-04-25T06:42:36.197Z,45.38
2023-04-25T06:45:22.985Z,42.56
2023-04-25T06:47:49.699Z,44.62
2023-04-25T06:50:16.566Z,47.12
2023-04-25T06:52:43.391Z,45.02
2023-04-25T06:55:10.679Z,43.04
2023-04-25T06:57:53.445Z,44.63
2023-04-25T07:00:58.960Z,39.61
2023-04-25T07:03:27.095Z,45.40
2023-04-25T07:05:59.064Z,43.64
2023-04-25T07:08:26.206Z,43.25
2023-04-25T07:10:53.567Z,42.68
2023-04-25T07:13:21.150Z,44.70
2023-04-25T07:15:49.165Z,46.52
2023-04-25T07:18:17.909Z,44.76
2023-04-25T07:20:45.082Z,45.54
2023-04-25T07:23:13.022Z,44.17
2023-04-25T07:25:40.496Z,42.94
2023-04-25T07:28:08.703Z,43.15
2023-04-25T07:30:36.576Z,41.49
2023-04-25T07:33:04.630Z,38.40
2023-04-25T07:35:32.685Z,38.55
2023-04-25T07:38:00.133Z,37.57
2023-04-25T07:40:27.500Z,39.67
2023-04-25T07:42:59.674Z,37.25
2023-04-25T07:45:38.949Z,37.88
2023-04-25T07:48:06.730Z,37.90
2023-04-25T07:50:36.666Z,37.97
2023-04-25T07:53:04.236Z,39.28
2023-04-25T07:55:37.563Z,39.38
2023-04-25T07:58:12.762Z,38.66
2023-04-25T08:00:42.636Z,38.05
2023-04-25T08:03:28.116Z,37.89
2023-04-25T08:05:55.737Z,36.24
2023-04-25T08:08:25.245Z,34.85
2023-04-25T08:10:52.518Z,36.93
2023-04-25T08:13:19.225Z,33.50
2023-04-25T08:15:46.561Z,35.20
2023-04-25T08:18:15.072Z,37.48
2023-04-25T08:20:44.592Z,37.28
2023-04-25T08:23:14.378Z,38.28
2023-04-25T08:26:01.608Z,36.86
2023-04-25T08:28:30.077Z,35.79
2023-04-25T08:30:59.152Z,36.09
2023-04-25T08:33:29.370Z,34.58
2023-04-25T08:36:01.598Z,35.40
2023-04-25T08:38:29.437Z,35.24
2023-04-25T08:40:57.824Z,37.20
2023-04-25T08:43:26.654Z,36.26
2023-04-25T08:45:55.618Z,36.08
2023-04-25T08:48:38.011Z,32.69
2023-04-25T08:53:43.814Z,32.75
2023-04-25T08:56:14.311Z,33.75
2023-04-25T08:58:41.678Z,35.33
2023-04-25T09:01:08.895Z,36.97
2023-04-25T09:03:45.968Z,35.31
2023-04-25T09:06:12.972Z,37.37
2023-04-25T09:08:41.557Z,42.19
2023-04-25T09:11:08.892Z,44.84
2023-04-25T09:13:36.723Z,43.78
2023-04-25T09:16:12.296Z,45.13
2023-04-25T09:18:49.249Z,45.94
2023-04-25T09:21:17.290Z,43.74
2023-04-25T09:23:48.482Z,38.15
2023-04-25T09:26:18.374Z,36.13
2023-04-25T09:28:47.329Z,31.66
2023-04-25T09:31:25.551Z,29.88
2023-04-25T09:34:02.833Z,28.36
2023-04-25T09:36:37.920Z,28.33
2023-04-25T09:39:23.214Z,31.87
2023-04-25T09:41:58.483Z,35.02
2023-04-25T09:44:26.783Z,35.53
2023-04-25T09:46:55.487Z,29.69
2023-04-25T09:49:30.683Z,35.11
2023-04-25T09:52:03.309Z,34.89
2023-04-25T09:54:48.499Z,35.95
2023-04-25T09:57:21.782Z,34.49
2023-04-25T09:59:50.591Z,39.01
2023-04-25T10:02:23.312Z,36.59
2023-04-25T10:04:57.263Z,35.88
2023-04-25T10:07:40.688Z,35.14
2023-04-25T10:10:14.088Z,36.05
2023-04-25T10:12:43.844Z,34.62
2023-04-25T10:15:11.897Z,36.52
2023-04-25T10:17:39.675Z,35.23
2023-04-25T10:20:11.796Z,32.50
2023-04-25T10:22:49.874Z,35.35
2023-04-25T10:25:16.946Z,33.36
2023-04-25T10:27:44.226Z,32.39
2023-04-25T10:30:16.259Z,32.45
2023-04-25T10:32:43.988Z,32.90
2023-04-25T10:35:19.201Z,29.17
2023-04-25T10:38:08.551Z,32.05
2023-04-25T10:40:36.596Z,29.58
2023-04-25T10:43:38.629Z,29.71
2023-04-25T10:46:24.995Z,31.65
2023-04-25T10:48:53.401Z,28.47
2023-04-25T10:51:50.968Z,31.17
2023-04-25T10:54:21.321Z,32.39
2023-04-25T10:56:50.666Z,31.05
2023-04-25T10:59:19.698Z,31.31
2023-04-25T11:01:48.693Z,34.01
2023-04-25T11:04:26.969Z,35.91
2023-04-25T11:07:05.512Z,40.16
2023-04-25T11:09:39.054Z,39.69
2023-04-25T11:12:08.159Z,37.34
2023-04-25T11:14:35.654Z,41.87
2023-04-25T11:17:03.621Z,42.07
2023-04-25T11:19:31.370Z,42.47
2023-04-25T11:21:59.653Z,41.60
2023-04-25T11:24:37.393Z,40.25
2023-04-25T11:27:06.728Z,41.09
2023-04-25T11:29:35.949Z,43.44
2023-04-25T11:32:03.708Z,43.07
2023-04-25T11:34:33.730Z,43.38
2023-04-25T11:37:03.113Z,47.84
2023-04-25T11:39:30.966Z,46.28
2023-04-25T11:41:58.282Z,43.91
2023-04-25T11:44:25.310Z,44.48
2023-04-25T11:46:52.095Z,45.61
2023-04-25T11:49:19.847Z,46.38
2023-04-25T11:51:48.950Z,50.09
2023-04-25T11:54:16.714Z,48.15
2023-04-25T11:56:45.235Z,47.33
2023-04-25T11:59:13.203Z,45.33
2023-04-25T12:01:49.078Z,47.87
2023-04-25T12:04:18.295Z,46.42
2023-04-25T12:06:50.971Z,51.01
2023-04-25T12:09:21.051Z,49.86
2023-04-25T12:11:56.806Z,48.05
2023-04-25T12:14:30.058Z,47.83
2023-04-25T12:17:03.468Z,47.70
2023-04-25T12:19:41.361Z,47.77
2023-04-25T12:22:22.823Z,49.55
2023-04-25T12:24:51.014Z,44.37
2023-04-25T12:27:20.471Z,44.33
2023-04-25T12:29:55.772Z,42.22
2023-04-25T12:32:22.951Z,41.43
2023-04-25T12:34:50.894Z,42.75
2023-04-25T12:37:17.592Z,41.45
2023-04-25T12:39:44.536Z,40.99
2023-04-25T12:42:14.408Z,41.33
2023-04-25T12:44:42.466Z,41.07
2023-04-25T12:47:09.807Z,37.01
2023-04-25T12:49:36.685Z,35.61
2023-04-25T12:52:03.484Z,41.46
2023-04-25T12:54:30.269Z,40.79
2023-04-25T12:56:57.752Z,37.51
2023-04-25T12:59:24.698Z,41.11
2023-04-25T13:01:51.770Z,38.49
2023-04-25T13:04:18.822Z,41.74
2023-04-25T13:06:45.929Z,37.87
2023-04-25T13:09:13.822Z,41.62
2023-04-25T13:11:42.636Z,42.90
2023-04-25T13:14:09.368Z,42.21
2023-04-25T13:16:36.889Z,41.62
2023-04-25T13:19:53.955Z,45.03
2023-04-25T13:22:21.607Z,41.89
2023-04-25T13:24:48.397Z,41.99
2023-04-25T13:27:15.302Z,44.12
2023-04-25T13:29:42.921Z,45.31
2023-04-25T13:32:10.761Z,46.60
2023-04-25T13:34:37.651Z,44.20
2023-04-25T13:37:04.393Z,43.83
2023-04-25T13:39:31.512Z,45.68
2023-04-25T13:41:58.931Z,43.71
2023-04-25T13:44:25.748Z,40.59
2023-04-25T13:46:53.068Z,40.87
2023-04-25T13:49:20.176Z,44.71
2023-04-25T13:51:46.883Z,46.46
2023-04-25T13:54:14.240Z,46.86
2023-04-25T13:56:43.508Z,45.87
2023-04-25T13:59:10.944Z,48.21
2023-04-25T14:01:37.832Z,48.13
2023-04-25T14:04:07.715Z,47.12
2023-04-25T14:06:35.411Z,44.80
2023-04-25T14:09:02.449Z,46.93
2023-04-25T14:11:29.662Z,47.06
2023-04-25T14:13:56.988Z,47.13
2023-04-25T14:16:24.402Z,46.91
2023-04-25T14:18:52.699Z,47.67
2023-04-25T14:21:19.513Z,45.52
2023-04-25T14:23:47.836Z,45.88
2023-04-25T14:26:14.671Z,45.22
2023-04-25T14:28:41.414Z,45.74
2023-04-25T14:31:08.530Z,48.91
2023-04-25T14:33:37.001Z,47.27
2023-04-25T14:36:04.220Z,45.34
2023-04-25T14:38:30.970Z,45.54
2023-04-25T14:40:58.506Z,49.91
2023-04-25T14:43:25.249Z,47.76
2023-04-25T14:45:52.027Z,48.82
2023-04-25T14:48:20.884Z,48.88
2023-04-25T14:50:47.683Z,46.26
2023-04-25T14:53:15.287Z,48.79
2023-04-25T14:55:42.553Z,46.27
2023-04-25T14:58:09.330Z,46.48
2023-04-25T15:00:37.180Z,46.60
2023-04-25T15:03:04.308Z,45.69
2023-04-25T15:05:31.256Z,45.54
2023-04-25T15:07:57.986Z,47.48
2023-04-25T15:10:25.435Z,46.07
2023-04-25T15:12:54.424Z,49.69
2023-04-25T15:15:26.576Z,45.91
2023-04-25T15:17:59.316Z,45.55
2023-04-25T15:20:26.635Z,46.22
2023-04-25T15:22:53.425Z,45.75
2023-04-25T15:25:20.206Z,47.23
2023-04-25T15:27:49.368Z,46.19
2023-04-25T15:30:17.576Z,44.83
2023-04-25T15:32:45.861Z,45.19
2023-04-25T15:35:14.116Z,44.97
2023-04-25T15:37:42.037Z,45.36
2023-04-25T15:40:15.348Z,43.82
2023-04-25T15:42:48.008Z,45.74
2023-04-25T15:45:17.828Z,45.26
2023-04-25T15:47:45.684Z,48.70
2023-04-25T15:50:15.506Z,46.39
2023-04-25T15:52:42.553Z,47.71
2023-04-25T15:55:09.727Z,46.80
2023-04-25T15:57:37.725Z,46.19
2023-04-25T16:00:17.199Z,44.53
2023-04-25T16:02:46.099Z,45.62
2023-04-25T16:05:15.106Z,45.66
2023-04-25T16:07:44.512Z,46.43
2023-04-25T16:10:12.429Z,46.01
2023-04-25T16:12:40.913Z,46.42
2023-04-25T16:15:08.728Z,44.93
2023-04-25T16:17:35.666Z,46.09
2023-04-25T16:20:06.648Z,47.81
2023-04-25T16:22:33.517Z,44.03
2023-04-25T16:25:00.968Z,49.26
2023-04-25T16:27:27.679Z,46.85
2023-04-25T16:29:54.456Z,46.86
2023-04-25T16:32:21.192Z,46.46
2023-04-25T16:34:47.942Z,45.70
2023-04-25T16:37:15.070Z,47.19
2023-04-25T16:39:41.807Z,47.12
2023-04-25T16:42:09.402Z,46.55
2023-04-25T16:44:36.904Z,47.97
2023-04-25T16:47:06.051Z,46.55
2023-04-25T16:49:33.320Z,47.33
2023-04-25T16:52:00.277Z,45.21
2023-04-25T16:54:27.926Z,45.27
2023-04-25T16:56:54.751Z,45.23
2023-04-25T16:59:21.479Z,46.21
2023-04-25T17:01:48.975Z,46.78
2023-04-25T17:04:16.583Z,48.87
2023-04-25T17:06:43.759Z,46.74
2023-04-25T17:09:10.563Z,47.12
2023-04-25T17:11:38.099Z,47.04
2023-04-25T17:14:05.083Z,46.80
2023-04-25T17:16:36.658Z,47.65
2023-04-25T17:19:06.828Z,47.73
2023-04-25T17:21:34.454Z,48.14
2023-04-25T17:24:04.803Z,49.39
2023-04-25T17:26:32.466Z,47.44
2023-04-25T17:29:00.783Z,50.01
2023-04-25T17:31:27.637Z,47.82
2023-04-25T17:33:55.004Z,52.13
2023-04-25T17:36:25.678Z,47.71
2023-04-25T17:38:54.780Z,47.10
2023-04-25T17:41:22.216Z,47.31
2023-04-25T17:43:57.006Z,46.09
2023-04-25T17:46:27.802Z,46.71
2023-04-25T17:49:02.181Z,47.67
2023-04-25T17:51:31.973Z,46.76
2023-04-25T17:53:58.798Z,48.53
2023-04-25T17:56:27.488Z,47.86
2023-04-25T17:58:55.838Z,49.83
2023-04-25T18:01:23.311Z,48.59
2023-04-25T18:03:51.705Z,47.19
2023-04-25T18:06:19.292Z,49.22
2023-04-25T18:08:47.353Z,48.23
2023-04-25T18:11:14.591Z,46.80
2023-04-25T18:13:41.639Z,46.36
2023-04-25T18:16:08.648Z,48.71
2023-04-25T18:18:36.688Z,46.80
2023-04-25T18:21:05.614Z,47.33
2023-04-25T18:23:34.324Z,47.18
2023-04-25T18:26:02.597Z,44.86
2023-04-25T18:28:29.845Z,46.44
2023-04-25T18:30:56.929Z,46.84
2023-04-25T18:33:23.978Z,46.36
2023-04-25T18:35:58.129Z,46.64
2023-04-25T18:41:09.936Z,44.02
2023-04-25T18:43:44.427Z,44.25
2023-04-25T18:46:11.425Z,43.58
2023-04-25T18:48:38.590Z,43.89
2023-04-25T18:51:05.737Z,45.24
2023-04-25T18:53:32.911Z,44.33
2023-04-25T18:56:00.174Z,44.32
2023-04-25T18:58:27.179Z,45.23
2023-04-25T19:00:54.065Z,45.83
2023-04-25T19:03:22.358Z,46.04
2023-04-25T19:05:49.317Z,45.57
2023-04-25T19:08:17.137Z,45.32
2023-04-25T19:10:44.453Z,45.76
2023-04-25T19:13:11.397Z,45.42
2023-04-25T19:15:39.949Z,44.55
2023-04-25T19:18:06.908Z,45.13
2023-04-25T19:20:34.144Z,48.73
2023-04-25T19:23:01.742Z,49.80
2023-04-25T19:25:28.427Z,50.09
2023-04-25T19:27:55.686Z,46.54
2023-04-25T19:30:23.164Z,47.94
2023-04-25T19:32:49.943Z,46.31
2023-04-25T19:35:17.157Z,47.89
2023-04-25T19:37:47.217Z,48.39
2023-04-25T19:40:18.297Z,47.69
2023-04-25T19:42:45.549Z,50.11
2023-04-25T19:45:12.647Z,51.90
2023-04-25T19:47:41.120Z,53.01
2023-04-25T19:50:09.467Z,50.62
2023-04-25T19:52:36.990Z,50.48
2023-04-25T19:55:05.206Z,52.18
2023-04-25T19:57:38.025Z,51.61
2023-04-25T20:00:09.432Z,49.19
2023-04-25T20:02:40.786Z,48.94
2023-04-25T20:05:09.007Z,48.41
2023-04-25T20:07:36.112Z,49.49
2023-04-25T20:10:04.713Z,48.52
2023-04-25T20:12:31.419Z,51.83
2023-04-25T20:14:58.541Z,56.67
2023-04-25T20:17:25.988Z,52.43
2023-04-25T20:19:52.997Z,51.92
2023-04-25T20:22:19.757Z,53.71
2023-04-25T20:24:46.625Z,50.56
2023-04-25T20:27:13.531Z,49.31
2023-04-25T20:29:42.088Z,50.29
2023-04-25T20:32:09.866Z,51.12
2023-04-25T20:34:37.188Z,49.96
2023-04-25T20:37:04.088Z,50.31
2023-04-25T20:39:33.685Z,51.01
2023-04-25T20:42:00.452Z,53.70
2023-04-25T20:44:27.256Z,50.86
2023-04-25T20:46:54.076Z,50.86
2023-04-25T20:49:20.937Z,49.66
2023-04-25T20:51:48.179Z,47.63
2023-04-25T20:54:15.238Z,47.53
2023-04-25T20:56:42.181Z,47.16
2023-04-25T20:59:09.188Z,50.90
2023-04-25T21:01:35.943Z,47.63
2023-04-25T21:04:03.039Z,52.86
2023-04-25T21:06:29.900Z,51.04
2023-04-25T21:08:57.177Z,49.23
2023-04-25T21:11:24.034Z,47.31
2023-04-25T21:13:51.800Z,49.92
2023-04-25T21:16:19.270Z,52.51
2023-04-25T21:18:46.029Z,52.15
2023-04-25T21:21:12.794Z,52.00
2023-04-25T21:23:39.583Z,49.58
2023-04-25T21:26:06.335Z,50.27
2023-04-25T21:28:33.288Z,50.12
2023-04-25T21:31:00.181Z,49.94
2023-04-25T21:33:27.596Z,47.38
2023-04-25T21:35:54.377Z,46.11
2023-04-25T21:38:21.389Z,48.19
2023-04-25T21:40:48.428Z,47.69
2023-04-25T21:43:15.189Z,49.50
2023-04-25T21:46:05.702Z,47.09
2023-04-25T21:48:28.891Z,46.83
2023-04-25T21:50:56.591Z,46.91
2023-04-25T21:53:24.922Z,47.23
2023-04-25T21:55:51.610Z,48.37
2023-04-25T21:58:18.544Z,45.63
2023-04-25T22:00:45.437Z,47.07
2023-04-25T22:03:14.729Z,47.18
2023-04-25T22:05:42.005Z,53.02
2023-04-25T22:08:09.010Z,51.67
2023-04-25T22:10:35.782Z,50.13
2023-04-25T22:13:02.622Z,50.44
2023-04-25T22:15:29.631Z,53.54
2023-04-25T22:17:56.621Z,50.12
2023-04-25T22:20:26.507Z,53.04
2023-04-25T22:22:54.662Z,49.63
2023-04-25T22:25:22.200Z,47.15
2023-04-25T22:27:49.730Z,47.35
2023-04-25T22:30:16.915Z,48.31
2023-04-25T22:32:43.863Z,51.28
2023-04-25T22:35:10.943Z,48.67
2023-04-25T22:37:37.806Z,48.15
2023-04-25T22:40:12.177Z,47.89
2023-04-25T22:42:39.865Z,48.60
2023-04-25T22:45:11.124Z,49.61
2023-04-25T22:47:38.962Z,50.85
2023-04-25T22:50:08.616Z,50.83
2023-04-25T22:52:35.420Z,50.69
2023-04-25T22:55:05.262Z,53.50
2023-04-25T22:57:32.096Z,50.20
2023-04-25T22:59:58.800Z,49.62
2023-04-25T23:02:26.003Z,48.97
2023-04-25T23:04:56.412Z,50.02
2023-04-25T23:07:23.941Z,50.90
2023-04-25T23:09:50.711Z,52.07
2023-04-25T23:12:21.398Z,49.68
2023-04-25T23:14:52.773Z,49.56
2023-04-25T23:17:20.509Z,49.19
2023-04-25T23:19:48.381Z,46.72
2023-04-25T23:22:15.774Z,51.29
2023-04-25T23:24:42.891Z,46.84
2023-04-25T23:27:09.628Z,48.06
2023-04-25T23:29:36.462Z,49.09
2023-04-25T23:32:04.321Z,48.84
2023-04-25T23:34:32.079Z,49.45
2023-04-25T23:37:01.403Z,47.16
2023-04-25T23:39:28.768Z,50.80
2023-04-25T23:41:55.901Z,53.30
2023-04-25T23:44:22.751Z,52.16
2023-04-25T23:46:50.689Z,49.90
2023-04-25T23:49:17.392Z,47.14
2023-04-25T23:51:44.119Z,45.65
2023-04-25T23:54:11.168Z,50.06
2023-04-25T23:56:37.958Z,50.53
2023-04-25T23:59:04.917Z,48.43
